Time;durP1;ratioP1;P1;durP2;ratioP2;P2;SDS_P1;SDS_P2;PMS_P1;PMS_P2;Temp;Humidity;BMP_temperature;BMP_pressure;BME280_temperature;BME280_humidity;BME280_pressure;Samples;Min_cycle;Max_cycle;Signal;HPM_P1;HPM_P2
2023/04/24 00:00:00;;;;;;;;;;;15.30;44.30;;;14.10;44.93;99981.63;12255317;19;19936;-85
2023/04/24 00:04:03;;;;;;;;;;;15.10;44.20;;;14.04;44.98;99971.63;12258503;19;19971;-85
2023/04/24 00:08:05;;;;;;;;;;;15.10;44.10;;;14.09;45.03;99974.69;12251617;19;19922;-85
2023/04/24 00:12:07;;;;;;;;;;;15.10;44.20;;;13.98;44.94;99968.66;12256048;19;19915;-85
2023/04/24 00:16:08;;;;;;;;;;;15.00;44.10;;;13.99;45.10;99962.44;12255279;19;19924;-85
2023/04/24 00:20:10;;;;;;;;;;;15.00;44.20;;;13.92;45.03;99957.69;12255855;19;19923;-85
2023/04/24 00:24:12;;;;;;;;;;;14.90;44.10;;;13.84;45.08;99949.59;12256563;19;19923;-85
2023/04/24 00:28:13;;;;;;;;;;;14.90;44.10;;;13.58;45.17;99903.66;12253357;19;19931;-85
2023/04/24 00:32:15;;;;;;;;;;;14.80;44.20;;;13.71;45.21;99927.94;12254507;19;19933;-85
2023/04/24 00:36:19;;;;;;;;;;;14.80;44.30;;;13.73;45.36;99932.09;12255180;19;20264;-85
2023/04/24 00:40:21;;;;;;;;;;;14.70;44.30;;;13.64;45.25;99913.69;12256490;19;20257;-85
2023/04/24 00:44:22;;;;;;;;;;;14.70;44.50;;;13.72;45.37;99934.88;12256857;19;19918;-85
2023/04/24 00:48:24;;;;;;;;;;;14.70;44.40;;;13.61;45.38;99904.25;12249396;19;19921;-85
2023/04/24 00:52:26;;;;;;;;;;;14.70;44.50;;;13.71;45.42;99920.91;12254238;19;19978;-85
2023/04/24 00:56:28;;;;;;;;;;;14.70;44.50;;;13.66;45.38;99915.22;12252448;19;20009;-85
2023/04/24 01:00:29;;;;;;;;;;;14.70;44.50;;;13.46;45.39;99881.88;12253521;19;19926;-85
2023/04/24 01:04:31;;;;;;;;;;;14.70;44.60;;;13.61;45.35;99906.03;12253817;19;19939;-85
2023/04/24 01:08:34;;;;;;;;;;;14.70;44.60;;;13.66;45.50;99909.13;12250285;19;19954;-84
2023/04/24 01:12:36;;;;;;;;;;;14.70;44.70;;;13.61;45.38;99900.78;12251393;19;20353;-85
2023/04/24 01:16:38;;;;;;;;;;;14.70;44.60;;;13.44;45.38;99883.78;12251005;19;19915;-85
2023/04/24 01:20:40;;;;;;;;;;;14.60;44.50;;;13.50;45.48;99906.88;12255188;19;19915;-85
2023/04/24 01:24:42;;;;;;;;;;;14.60;44.60;;;13.41;45.49;99884.88;12251646;19;20670;-85
2023/04/24 01:28:47;;;;;;;;;;;14.60;44.80;;;13.35;45.72;99881.91;12251952;19;19940;-85
2023/04/24 01:32:49;;;;;;;;;;;14.50;44.80;;;13.42;45.64;99897.03;12249809;19;19919;-85
2023/04/24 01:36:51;;;;;;;;;;;14.50;45.00;;;13.24;45.64;99852.13;12250111;19;19922;-85
2023/04/24 01:40:52;;;;;;;;;;;14.50;44.90;;;13.37;45.51;99877.41;12252833;19;19915;-85
2023/04/24 01:44:54;;;;;;;;;;;14.50;45.10;;;13.43;45.73;99877.72;12250205;19;19935;-85
2023/04/24 01:48:57;;;;;;;;;;;14.50;45.10;;;13.21;45.66;99854.97;12246468;19;19930;-85
2023/04/24 01:52:59;;;;;;;;;;;14.50;45.00;;;13.13;45.79;99840.84;12249341;19;20313;-85
2023/04/24 01:57:02;;;;;;;;;;;14.50;45.20;;;13.43;45.86;99882.13;12250875;19;19921;-85
2023/04/24 02:01:03;;;;;;;;;;;14.50;45.10;;;13.34;45.91;99861.88;12251527;19;20004;-85
2023/04/24 02:05:07;;;;;;;;;;;14.50;45.10;;;13.41;45.91;99869.13;12249606;19;19927;-85
2023/04/24 02:09:11;;;;;;;;;;;14.50;45.10;;;13.45;45.95;99875.81;12252486;19;19922;-85
2023/04/24 02:13:12;;;;;;;;;;;14.50;45.20;;;13.48;45.96;99869.47;12251647;19;20310;-85
2023/04/24 02:17:15;;;;;;;;;;;14.50;45.20;;;13.44;45.96;99865.44;12251037;19;19930;-85
2023/04/24 02:21:17;;;;;;;;;;;14.50;45.20;;;13.31;45.99;99841.16;12249011;19;19918;-85
2023/04/24 02:25:19;;;;;;;;;;;14.50;45.20;;;13.39;46.13;99855.31;12251394;19;19919;-85
2023/04/24 02:29:21;;;;;;;;;;;14.50;45.20;;;13.34;45.96;99838.28;12249209;19;19918;-85
2023/04/24 02:33:25;;;;;;;;;;;14.50;45.20;;;13.12;46.07;99807.69;12248533;19;19923;-85
2023/04/24 02:37:26;;;;;;;;;;;14.50;45.30;;;13.21;46.13;99820.91;12244948;19;19915;-85
2023/04/24 02:41:32;;;;;;;;;;;14.50;45.40;;;13.36;46.21;99855.56;12249281;19;20264;-85
2023/04/24 02:45:34;;;;;;;;;;;14.50;45.40;;;13.23;46.14;99823.38;12248827;19;19992;-85
2023/04/24 02:49:36;;;;;;;;;;;14.50;45.70;;;13.39;46.13;99850.06;12243429;19;19923;-85
2023/04/24 02:54:02;;;;;;;;;;;14.50;45.50;;;13.46;46.36;99859.09;12240461;19;20348;-84
2023/04/24 02:58:12;;;;;;;;;;;14.60;45.60;;;13.32;46.28;99835.78;12246469;19;20253;-84
2023/04/24 03:02:14;;;;;;;;;;;14.60;45.70;;;13.44;46.37;99839.19;12247447;19;20317;-84
2023/04/24 03:06:16;;;;;;;;;;;14.60;46.00;;;13.20;46.26;99800.03;12246718;19;19918;-84
2023/04/24 03:10:18;;;;;;;;;;;14.60;46.60;;;13.50;46.41;99846.56;12246189;19;19907;-84
2023/04/24 03:14:19;;;;;;;;;;;14.60;46.20;;;13.49;46.35;99835.25;12246043;19;19926;-84
2023/04/24 03:18:21;;;;;;;;;;;14.60;46.10;;;13.42;46.46;99828.00;12244992;19;19915;-84
2023/04/24 03:22:25;;;;;;;;;;;14.70;46.20;;;13.56;46.47;99853.13;12246607;19;19959;-84
2023/04/24 03:26:27;;;;;;;;;;;14.70;46.10;;;13.60;46.45;99849.28;12245047;19;19914;-84
2023/04/24 03:30:49;;;;;;;;;;;14.70;46.40;;;13.58;46.46;99841.53;12247777;19;19922;-84
2023/04/24 03:34:53;;;;;;;;;;;14.70;46.10;;;13.57;46.64;99839.88;12254717;19;19945;-84
2023/04/24 03:38:55;;;;;;;;;;;14.80;46.20;;;13.71;46.63;99847.44;12257426;19;19971;-84
2023/04/24 03:43:07;;;;;;;;;;;14.80;46.20;;;13.75;46.60;99850.66;12257056;19;20354;-84
2023/04/24 03:47:08;;;;;;;;;;;14.90;46.20;;;13.79;46.69;99846.81;12253339;19;19919;-84
2023/04/24 03:51:12;;;;;;;;;;;14.90;46.30;;;13.78;46.67;99849.56;12254666;19;19923;-84
2023/04/24 03:55:18;;;;;;;;;;;14.90;46.40;;;13.85;46.68;99866.44;12253044;19;19926;-84
2023/04/24 03:59:22;;;;;;;;;;;15.00;46.40;;;13.85;46.81;99862.06;12254954;19;19917;-85
2023/04/24 04:03:36;;;;;;;;;;;15.00;46.30;;;13.84;46.79;99855.13;12254941;19;19926;-85
2023/04/24 04:07:38;;;;;;;;;;;15.10;46.50;;;13.89;46.73;99858.22;12253231;19;19945;-85
2023/04/24 04:11:40;;;;;;;;;;;15.10;46.40;;;13.69;46.85;99812.63;12256065;19;19915;-84
2023/04/24 04:15:41;;;;;;;;;;;15.10;46.60;;;13.97;46.93;99857.56;12250833;19;20283;-84
2023/04/24 04:19:43;;;;;;;;;;;15.10;46.50;;;14.03;46.92;99859.69;12255235;19;19928;-84
2023/04/24 04:23:45;;;;;;;;;;;15.20;46.70;;;13.76;47.01;99806.88;12254627;19;19911;-84
2023/04/24 04:27:54;;;;;;;;;;;15.20;46.70;;;13.99;47.02;99837.28;12250862;19;19923;-84
2023/04/24 04:31:57;;;;;;;;;;;15.20;46.60;;;14.08;47.01;99852.25;12250925;19;19931;-84
2023/04/24 04:36:00;;;;;;;;;;;15.30;46.80;;;14.13;47.06;99855.31;12253533;19;20373;-85
2023/04/24 04:40:06;;;;;;;;;;;15.30;46.70;;;14.08;47.11;99846.19;12254913;19;19915;-85
2023/04/24 04:44:14;;;;;;;;;;;15.30;46.80;;;14.12;46.92;99848.44;12253166;19;19956;-85
2023/04/24 04:48:17;;;;;;;;;;;15.30;46.70;;;14.23;47.01;99863.28;12251170;19;19917;-84
2023/04/24 04:52:19;;;;;;;;;;;15.40;46.80;;;14.26;47.12;99870.06;12257388;19;19935;-85
2023/04/24 04:56:25;;;;;;;;;;;15.40;46.90;;;14.28;47.12;99868.94;12255168;19;19991;-85
2023/04/24 05:00:28;;;;;;;;;;;15.50;46.90;;;14.02;47.24;99828.31;12255765;19;20321;-85
2023/04/24 05:04:31;;;;;;;;;;;15.50;47.00;;;14.35;47.22;99877.16;12257998;19;19918;-85
2023/04/24 05:08:32;;;;;;;;;;;15.50;47.00;;;14.39;47.17;99883.78;12251921;19;19915;-84
2023/04/24 05:12:35;;;;;;;;;;;15.50;47.10;;;14.44;47.21;99879.00;12254675;19;19919;-85
2023/04/24 05:16:38;;;;;;;;;;;15.60;47.10;;;14.34;47.23;99855.31;12252824;19;19934;-85
2023/04/24 05:20:43;;;;;;;;;;;15.60;47.20;;;14.48;47.38;99866.44;12253669;19;19915;-85
2023/04/24 05:24:45;;;;;;;;;;;15.70;47.00;;;14.54;47.26;99863.31;12254404;19;19926;-85
2023/04/24 05:29:05;;;;;;;;;;;15.70;47.10;;;14.59;47.41;99861.13;12253429;19;20350;-85
2023/04/24 05:33:08;;;;;;;;;;;15.80;47.10;;;14.66;47.36;99866.69;12254011;19;19937;-84
2023/04/24 05:37:10;;;;;;;;;;;15.80;47.10;;;14.63;47.35;99864.31;12248972;19;20031;-86
2023/04/24 05:41:12;;;;;;;;;;;15.90;47.10;;;14.72;47.57;99877.50;12253051;19;19940;-84
2023/04/24 05:45:16;;;;;;;;;;;15.90;47.30;;;14.75;47.50;99874.59;12251833;19;19974;-86
2023/04/24 05:49:18;;;;;;;;;;;15.90;47.30;;;14.71;47.43;99860.06;12250066;19;19939;-86
2023/04/24 05:53:21;;;;;;;;;;;16.00;47.30;;;14.89;47.57;99886.56;12249655;19;19918;-86
2023/04/24 05:57:23;;;;;;;;;;;16.00;47.90;;;14.90;47.62;99879.50;12249282;19;19953;-86
2023/04/24 06:01:34;;;;;;;;;;;16.10;48.10;;;14.98;47.58;99885.75;12253568;19;19914;-85
2023/04/24 06:05:44;;;;;;;;;;;16.00;47.80;;;14.96;47.68;99858.78;12251837;19;19954;-86
2023/04/24 06:09:47;;;;;;;;;;;16.30;48.30;;;15.17;47.57;99890.22;12253020;19;19927;-86
2023/04/24 06:13:49;;;;;;;;;;;16.40;48.20;;;15.18;47.68;99877.94;12250908;19;19982;-85
2023/04/24 06:18:19;;;;;;;;;;;16.50;50.20;;;15.34;47.82;99894.03;12248328;19;19915;-85
2023/04/24 06:22:23;;;;;;;;;;;16.60;48.40;;;15.43;47.77;99903.72;12250279;19;19923;-85
2023/04/24 06:26:26;;;;;;;;;;;16.70;48.80;;;15.52;47.76;99914.38;12247804;19;19914;-85
2023/04/24 06:30:28;;;;;;;;;;;16.70;48.10;;;15.55;47.87;99903.59;12248855;19;19926;-86
2023/04/24 06:34:32;;;;;;;;;;;16.80;48.10;;;15.48;47.75;99890.97;12248685;19;19953;-85
2023/04/24 06:38:34;;;;;;;;;;;16.80;47.80;;;15.52;47.64;99888.91;12245084;19;19915;-85
2023/04/24 06:42:36;;;;;;;;;;;16.90;47.60;;;15.61;47.68;99897.78;12249304;19;20341;-85
2023/04/24 06:46:38;;;;;;;;;;;16.90;47.50;;;15.73;47.72;99911.69;12245925;19;20424;-85
2023/04/24 06:50:40;;;;;;;;;;;16.90;48.10;;;15.52;47.95;99874.91;12249265;19;19915;-86
2023/04/24 06:54:42;;;;;;;;;;;16.90;47.50;;;15.63;47.83;99880.03;12247721;19;20331;-86
2023/04/24 06:58:44;;;;;;;;;;;17.00;48.00;;;15.78;47.94;99888.41;12246415;19;19923;-85
2023/04/24 07:02:50;;;;;;;;;;;17.10;47.90;;;15.90;47.87;99889.91;12250041;19;19927;-86
2023/04/24 07:06:54;;;;;;;;;;;17.10;47.70;;;15.93;47.78;99882.59;12248133;19;19915;-86
2023/04/24 07:10:55;;;;;;;;;;;17.20;47.80;;;16.08;47.67;99890.88;12248399;19;19923;-86
2023/04/24 07:14:57;;;;;;;;;;;17.30;47.70;;;16.00;47.99;99859.13;12241212;19;19923;-86
2023/04/24 07:18:58;;;;;;;;;;;17.40;47.90;;;16.29;47.88;99890.69;12247341;19;19915;-86
2023/04/24 07:23:00;;;;;;;;;;;17.60;47.60;;;16.49;48.12;99903.81;12248836;19;19922;-86
2023/04/24 07:27:01;;;;;;;;;;;17.70;47.60;;;16.38;47.97;99860.03;12245576;19;19994;-87
2023/04/24 07:31:03;;;;;;;;;;;17.80;47.60;;;16.72;47.93;99891.97;12246286;19;19919;-89
2023/04/24 07:35:05;;;;;;;;;;;18.00;47.70;;;16.99;47.94;99914.09;12247291;19;19946;-87
2023/04/24 07:39:08;;;;;;;;;;;18.20;47.70;;;17.13;48.07;99912.78;12248081;19;19923;-86
2023/04/24 07:43:09;;;;;;;;;;;18.40;47.80;;;17.28;47.96;99905.16;12248963;19;19922;-86
2023/04/24 07:47:11;;;;;;;;;;;18.50;47.60;;;17.37;48.14;99891.09;12242656;19;19915;-85
2023/04/24 07:51:13;;;;;;;;;;;18.70;47.60;;;17.59;48.29;99892.47;12246171;19;20285;-86
2023/04/24 07:55:15;;;;;;;;;;;18.90;47.40;;;17.83;48.05;99905.09;12244179;19;20366;-85
2023/04/24 07:59:17;;;;;;;;;;;19.10;47.00;;;17.95;47.89;99910.97;12246485;19;19947;-86
2023/04/24 08:03:19;;;;;;;;;;;19.20;46.80;;;17.77;48.26;99860.75;12247835;19;19919;-86
2023/04/24 08:07:21;;;;;;;;;;;19.40;46.90;;;18.21;48.06;99897.81;12242390;19;19941;-86
2023/04/24 08:11:23;;;;;;;;;;;19.50;46.90;;;18.33;48.14;99892.13;12247931;19;19915;-85
2023/04/24 08:15:24;;;;;;;;;;;19.70;46.90;;;18.49;47.92;99894.00;12242738;19;19915;-85
2023/04/24 08:19:26;;;;;;;;;;;19.80;46.50;;;18.56;48.13;99892.41;12253946;19;19938;-86
2023/04/24 08:23:29;;;;;;;;;;;19.90;46.60;;;18.62;47.92;99876.91;12261492;19;20362;-86
2023/04/24 08:27:30;;;;;;;;;;;20.00;46.40;;;18.79;48.25;99899.81;12261942;19;20279;-86
2023/04/24 08:31:32;;;;;;;;;;;20.10;46.30;;;18.92;48.01;99900.22;12263778;19;19928;-86
2023/04/24 08:35:33;;;;;;;;;;;20.20;46.30;;;19.00;48.22;99887.00;12261895;19;19946;-85
2023/04/24 08:39:36;;;;;;;;;;;20.30;46.10;;;19.09;47.95;99884.41;12263017;19;19914;-85
2023/04/24 08:43:38;;;;;;;;;;;20.50;45.90;;;19.29;47.97;99884.97;12264138;19;19939;-87
2023/04/24 08:47:41;;;;;;;;;;;20.60;46.10;;;19.21;47.78;99856.66;12261666;19;19923;-86
2023/04/24 08:51:43;;;;;;;;;;;20.70;46.00;;;19.39;47.89;99883.84;12262380;19;19931;-85
2023/04/24 08:55:47;;;;;;;;;;;20.80;45.70;;;19.64;48.02;99905.88;12259895;19;19986;-86
2023/04/24 08:59:49;;;;;;;;;;;21.00;45.80;;;19.64;47.83;99892.63;12267034;19;19926;-86
2023/04/24 09:03:51;;;;;;;;;;;21.10;45.50;;;19.74;47.86;99895.19;12263329;19;21941;-85
2023/04/24 09:07:56;;;;;;;;;;;21.20;44.10;;;19.79;47.68;99892.84;12261354;19;20254;-87
2023/04/24 09:11:58;;;;;;;;;;;21.20;44.80;;;19.84;47.87;99897.66;12264350;19;20344;-86
2023/04/24 09:16:00;;;;;;;;;;;21.30;44.90;;;19.91;47.78;99906.59;12255025;19;20270;-85
2023/04/24 09:20:02;;;;;;;;;;;21.20;44.80;;;19.84;47.61;99887.03;12256038;19;19932;-85
2023/04/24 09:24:14;;;;;;;;;;;21.30;44.60;;;19.92;47.46;99916.19;12256486;19;19987;-87
2023/04/24 09:28:15;;;;;;;;;;;21.30;44.60;;;19.80;47.46;99889.22;12253073;19;20257;-86
2023/04/24 09:32:25;;;;;;;;;;;21.20;44.80;;;19.92;47.45;99912.72;12254657;19;19922;-86
2023/04/24 09:36:37;;;;;;;;;;;21.20;44.90;;;19.87;47.19;99903.47;12251715;19;19950;-86
2023/04/24 09:40:39;;;;;;;;;;;21.20;45.10;;;19.65;47.57;99866.97;12254696;19;20407;-87
2023/04/24 09:44:41;;;;;;;;;;;21.30;44.70;;;19.93;47.24;99903.78;12253434;19;19914;-87
2023/04/24 09:48:43;;;;;;;;;;;21.20;44.60;;;19.73;47.20;99882.09;12250666;19;20339;-86
2023/04/24 09:53:10;;;;;;;;;;;21.20;44.50;;;19.82;46.96;99891.69;12253853;19;19910;-87
2023/04/24 09:57:14;;;;;;;;;;;21.20;44.10;;;19.85;46.90;99908.09;12252974;19;19922;-86
2023/04/24 10:01:15;;;;;;;;;;;21.10;44.60;;;19.83;47.04;99903.94;12251524;19;19914;-87
2023/04/24 10:05:17;;;;;;;;;;;21.10;44.80;;;19.72;47.03;99891.84;12251974;19;20352;-86
2023/04/24 10:09:20;;;;;;;;;;;21.10;44.80;;;19.75;46.86;99896.81;12251351;19;19922;-86
2023/04/24 10:13:22;;;;;;;;;;;21.10;44.90;;;19.73;46.92;99903.28;12248225;19;19922;-86
2023/04/24 10:17:25;;;;;;;;;;;21.00;44.80;;;19.80;47.00;99913.06;12247804;19;19922;-86
2023/04/24 10:21:26;;;;;;;;;;;21.00;44.90;;;19.76;46.82;99909.06;12250914;19;19915;-86
2023/04/24 10:25:33;;;;;;;;;;;21.00;44.70;;;19.78;46.92;99908.91;12248864;19;19927;-86
2023/04/24 10:29:35;;;;;;;;;;;20.90;44.70;;;19.71;47.15;99911.38;12252446;19;19955;-86
2023/04/24 10:33:38;;;;;;;;;;;20.80;44.40;;;19.66;46.98;99922.47;12248009;19;19914;-87
2023/04/24 10:37:48;;;;;;;;;;;20.90;44.70;;;19.64;46.95;99923.59;12244253;19;19982;-86
2023/04/24 10:41:50;;;;;;;;;;;20.80;44.60;;;19.42;46.92;99893.28;12248623;19;19949;-86
2023/04/24 10:46:05;;;;;;;;;;;20.80;44.60;;;19.63;46.95;99909.53;12248561;19;19982;-85
2023/04/24 10:50:10;;;;;;;;;;;20.70;44.80;;;19.78;46.95;99912.38;12247769;19;19924;-86
2023/04/24 10:54:35;;;;;;;;;;;20.80;45.00;;;19.88;46.88;99913.06;12248576;19;19929;-86
2023/04/24 10:58:38;;;;;;;;;;;20.90;45.00;;;19.99;46.94;99911.06;12247399;19;19932;-86
2023/04/24 11:02:43;;;;;;;;;;;21.00;45.00;;;20.04;46.73;99906.13;12250073;19;19926;-86
2023/04/24 11:06:45;;;;;;;;;;;21.10;44.40;;;20.15;46.71;99908.41;12245100;19;19915;-86
2023/04/24 11:10:57;;;;;;;;;;;21.20;44.10;;;20.16;46.76;99883.56;12250952;19;19939;-86
2023/04/24 11:15:02;;;;;;;;;;;21.30;44.40;;;20.26;46.36;99897.47;12247348;19;19926;-85
2023/04/24 11:19:17;;;;;;;;;;;21.40;43.60;;;20.36;46.88;99892.00;12248658;19;19922;-86
2023/04/24 11:23:19;;;;;;;;;;;21.50;43.70;;;20.43;46.81;99894.78;12252207;19;19919;-87
2023/04/24 11:27:22;;;;;;;;;;;21.50;43.20;;;20.29;46.46;99852.06;12249206;19;19914;-86
2023/04/24 11:31:38;;;;;;;;;;;21.60;43.90;;;20.51;46.31;99878.84;12251886;19;19923;-87
2023/04/24 11:35:40;;;;;;;;;;;21.70;43.00;;;20.67;46.41;99886.78;12248466;19;19919;-87
2023/04/24 11:39:42;;;;;;;;;;;21.80;43.30;;;20.45;46.32;99855.66;12248860;19;19914;-87
2023/04/24 11:43:44;;;;;;;;;;;21.80;44.00;;;20.64;46.05;99881.84;12253250;19;19919;-86
2023/04/24 11:47:46;;;;;;;;;;;21.80;42.20;;;20.71;46.24;99905.84;12246991;19;19925;-87
2023/04/24 11:51:47;;;;;;;;;;;21.80;43.00;;;20.61;45.99;99915.84;12252720;19;19918;-86
2023/04/24 11:55:49;;;;;;;;;;;21.80;43.00;;;20.54;46.29;99918.34;12258581;19;19926;-87
2023/04/24 11:59:50;;;;;;;;;;;21.70;43.40;;;20.43;46.49;99916.81;12263740;19;20286;-86
2023/04/24 12:03:59;;;;;;;;;;;21.70;43.80;;;20.34;45.99;99918.66;12263151;19;19923;-87
2023/04/24 12:08:01;;;;;;;;;;;21.60;44.10;;;20.23;46.46;99897.81;12258837;19;19911;-85
2023/04/24 12:12:06;;;;;;;;;;;21.40;44.50;;;20.27;46.45;99901.75;12260395;19;19926;-86
2023/04/24 12:16:07;;;;;;;;;;;21.40;44.70;;;20.35;46.66;99887.66;12258195;19;20277;-86
2023/04/24 12:20:09;;;;;;;;;;;21.40;44.90;;;20.41;46.34;99900.25;12260125;19;19919;-86
2023/04/24 12:24:11;;;;;;;;;;;21.50;44.90;;;20.46;46.04;99897.91;12259546;19;19931;-87
2023/04/24 12:28:13;;;;;;;;;;;21.50;44.80;;;20.49;45.97;99900.22;12255340;19;19937;-86
2023/04/24 12:32:17;;;;;;;;;;;21.50;44.30;;;20.48;46.08;99890.63;12261440;19;20357;-85
2023/04/24 12:36:21;;;;;;;;;;;21.50;43.80;;;20.48;45.89;99893.28;12250632;19;19922;-85
2023/04/24 12:40:25;;;;;;;;;;;21.50;44.10;;;20.49;46.06;99884.31;12255350;19;20302;-85
2023/04/24 12:44:34;;;;;;;;;;;21.50;42.30;;;20.59;46.20;99886.81;12254879;19;19923;-85
2023/04/24 12:48:36;;;;;;;;;;;21.60;42.80;;;20.60;45.81;99877.84;12250758;19;19923;-85
2023/04/24 12:52:38;;;;;;;;;;;21.70;42.80;;;20.68;46.02;99867.22;12254471;19;19979;-86
2023/04/24 12:56:40;;;;;;;;;;;21.80;43.40;;;20.80;45.92;99874.81;12253961;19;19922;-86
2023/04/24 13:00:43;;;;;;;;;;;21.80;42.80;;;20.87;45.96;99871.28;12254516;19;20337;-86
2023/04/24 13:04:46;;;;;;;;;;;22.00;42.80;;;20.95;45.78;99894.31;12253109;19;20328;-86
2023/04/24 13:08:48;;;;;;;;;;;22.00;43.10;;;21.04;45.65;99895.13;12254784;19;19915;-86
2023/04/24 13:12:50;;;;;;;;;;;22.10;42.80;;;20.87;45.53;99846.56;12248649;19;19937;-86
2023/04/24 13:16:51;;;;;;;;;;;22.10;41.60;;;20.92;45.38;99862.81;12253351;19;19919;-87
2023/04/24 13:20:53;;;;;;;;;;;22.20;41.60;;;21.07;45.60;99884.97;12254988;19;19926;-86
2023/04/24 13:24:56;;;;;;;;;;;22.10;40.60;;;20.98;45.58;99854.16;12254739;19;19918;-85
2023/04/24 13:28:57;;;;;;;;;;;22.20;40.70;;;21.10;45.38;99881.97;12251830;19;19915;-86
2023/04/24 13:32:59;;;;;;;;;;;22.20;41.20;;;21.07;45.58;99866.41;12254558;19;19915;-85
2023/04/24 13:37:01;;;;;;;;;;;22.20;38.10;;;21.11;45.56;99856.25;12249350;19;19911;-85
2023/04/24 13:41:02;;;;;;;;;;;22.30;39.70;;;21.05;45.50;99828.56;12255127;19;19910;-86
2023/04/24 13:45:05;;;;;;;;;;;22.30;39.90;;;21.32;45.03;99866.25;12252975;19;20014;-86
2023/04/24 13:49:06;;;;;;;;;;;22.40;40.30;;;21.23;45.14;99860.16;12254044;19;19940;-85
2023/04/24 13:53:08;;;;;;;;;;;22.40;40.70;;;21.10;45.01;99833.38;12252828;19;19911;-85
2023/04/24 13:57:10;;;;;;;;;;;22.50;40.20;;;21.21;44.75;99856.84;12250999;19;20312;-85
2023/04/24 14:01:12;;;;;;;;;;;22.40;39.40;;;21.13;44.63;99843.63;12255782;19;19915;-86
2023/04/24 14:05:15;;;;;;;;;;;22.40;38.60;;;21.11;44.76;99840.31;12258805;19;19978;-85
2023/04/24 14:09:16;;;;;;;;;;;22.40;39.40;;;21.23;44.49;99862.00;12256104;19;19922;-86
2023/04/24 14:13:18;;;;;;;;;;;22.30;39.00;;;21.06;44.87;99838.19;12256020;19;20341;-85
2023/04/24 14:17:19;;;;;;;;;;;22.30;37.20;;;21.18;44.39;99847.41;12254405;19;19921;-86
2023/04/24 14:21:21;;;;;;;;;;;22.30;38.20;;;21.28;44.38;99864.94;12258882;19;20325;-86
2023/04/24 14:25:23;;;;;;;;;;;22.30;39.20;;;21.07;44.25;99839.84;12255985;19;19933;-85
2023/04/24 14:29:25;;;;;;;;;;;22.30;39.70;;;21.29;44.14;99867.44;12255027;19;19923;-85
2023/04/24 14:33:27;;;;;;;;;;;22.30;39.00;;;21.26;44.10;99859.81;12255278;19;19943;-85
2023/04/24 14:37:29;;;;;;;;;;;22.40;40.00;;;21.28;44.15;99864.94;12254520;19;20236;-86
2023/04/24 14:41:31;;;;;;;;;;;22.40;39.80;;;21.23;44.22;99872.63;12257349;19;19923;-85
2023/04/24 14:45:32;;;;;;;;;;;22.30;39.60;;;21.17;43.89;99856.38;12260403;19;19926;-85
2023/04/24 14:49:34;;;;;;;;;;;22.30;38.00;;;21.18;43.97;99873.97;12256869;19;19911;-85
2023/04/24 14:53:35;;;;;;;;;;;22.20;39.40;;;21.14;43.67;99866.50;12256963;19;20030;-86
2023/04/24 14:57:36;;;;;;;;;;;22.20;39.90;;;21.07;44.05;99857.63;12252671;19;19914;-85
2023/04/24 15:01:38;;;;;;;;;;;22.20;38.50;;;21.14;43.69;99871.81;12258106;19;20239;-86
2023/04/24 15:05:39;;;;;;;;;;;22.20;39.30;;;21.03;43.72;99848.31;12259473;19;19915;-85
2023/04/24 15:09:41;;;;;;;;;;;22.20;39.00;;;21.05;43.89;99851.63;12256078;19;19919;-86
2023/04/24 15:13:42;;;;;;;;;;;22.20;39.00;;;21.14;43.66;99862.06;12255283;19;20314;-86
2023/04/24 15:17:43;;;;;;;;;;;22.20;39.30;;;21.16;43.66;99867.19;12252899;19;19919;-85
2023/04/24 15:21:45;;;;;;;;;;;22.20;39.00;;;21.06;43.66;99859.41;12255342;19;19929;-86
2023/04/24 15:25:47;;;;;;;;;;;22.20;37.10;;;21.10;43.64;99871.34;12250835;19;19919;-86
2023/04/24 15:29:48;;;;;;;;;;;22.20;39.00;;;20.90;43.48;99841.78;12264230;19;19914;-86
2023/04/24 15:33:50;;;;;;;;;;;22.10;39.10;;;21.12;43.42;99885.28;12262572;19;20322;-85
2023/04/24 15:37:52;;;;;;;;;;;22.20;39.00;;;21.03;43.18;99880.19;12261661;19;19924;-85
2023/04/24 15:41:54;;;;;;;;;;;22.10;37.50;;;21.06;43.11;99891.28;12260196;19;19930;-86
2023/04/24 15:45:55;;;;;;;;;;;22.10;38.80;;;20.96;43.25;99886.19;12258796;19;20321;-86
2023/04/24 15:49:57;;;;;;;;;;;22.10;39.20;;;20.90;43.30;99891.34;12259882;19;20030;-85
2023/04/24 15:53:59;;;;;;;;;;;22.00;37.90;;;20.89;43.09;99900.31;12257474;19;19948;-85
2023/04/24 15:58:00;;;;;;;;;;;22.00;37.00;;;20.68;43.19;99887.63;12257048;19;19914;-85
2023/04/24 16:02:03;;;;;;;;;;;22.00;38.00;;;20.74;43.12;99918.78;12258954;19;19935;-85
2023/04/24 16:06:05;;;;;;;;;;;21.80;38.00;;;20.66;43.11;99918.81;12255407;19;20340;-86
2023/04/24 16:10:07;;;;;;;;;;;21.70;38.80;;;20.45;42.69;99903.41;12260498;19;19926;-86
2023/04/24 16:14:08;;;;;;;;;;;21.60;38.90;;;20.48;42.81;99924.28;12257700;19;20329;-86
2023/04/24 16:18:09;;;;;;;;;;;21.50;39.40;;;20.42;42.98;99927.63;12251668;19;20345;-85
2023/04/24 16:22:11;;;;;;;;;;;21.40;39.60;;;20.33;42.73;99922.34;12260161;19;19929;-85
2023/04/24 16:26:14;;;;;;;;;;;21.30;38.50;;;20.21;42.79;99922.84;12255967;19;20307;-85
2023/04/24 16:30:16;;;;;;;;;;;21.30;38.80;;;20.06;42.51;99930.59;12256938;19;19915;-86
2023/04/24 16:34:17;;;;;;;;;;;21.10;38.80;;;19.95;42.80;99923.81;12253063;19;19915;-86
2023/04/24 16:38:19;;;;;;;;;;;21.00;39.40;;;19.96;42.46;99935.28;12249319;19;19927;-85
2023/04/24 16:42:21;;;;;;;;;;;20.90;39.30;;;19.84;42.51;99927.63;12255076;19;20189;-86
2023/04/24 16:46:22;;;;;;;;;;;20.90;39.20;;;19.89;42.65;99941.19;12254561;19;19919;-85
2023/04/24 16:50:24;;;;;;;;;;;20.80;38.80;;;19.72;42.89;99933.41;12256294;19;19922;-85
2023/04/24 16:54:25;;;;;;;;;;;20.80;38.50;;;19.67;42.61;99941.84;12253706;19;19925;-85
2023/04/24 16:58:27;;;;;;;;;;;20.60;38.10;;;19.48;42.82;99935.00;12250750;19;19944;-85
2023/04/24 17:02:28;;;;;;;;;;;20.60;37.60;;;19.49;42.39;99938.47;12257149;19;19927;-86
2023/04/24 17:06:30;;;;;;;;;;;20.50;38.90;;;19.36;42.39;99931.81;12252495;19;19978;-86
2023/04/24 17:10:32;;;;;;;;;;;20.40;39.50;;;19.35;42.55;99945.22;12255124;19;20309;-85
2023/04/24 17:14:33;;;;;;;;;;;20.40;39.30;;;19.33;42.41;99961.25;12253294;19;19915;-85
2023/04/24 17:18:35;;;;;;;;;;;20.30;38.90;;;19.28;42.38;99995.34;12252660;19;19917;-85
2023/04/24 17:22:36;;;;;;;;;;;20.20;39.60;;;19.00;42.40;99971.69;12255180;19;20345;-85
2023/04/24 17:26:38;;;;;;;;;;;20.20;39.40;;;18.83;42.78;99977.06;12251980;19;19919;-85
2023/04/24 17:30:39;;;;;;;;;;;20.00;39.50;;;18.79;42.56;100014.44;12252850;19;19923;-86
2023/04/24 17:34:41;;;;;;;;;;;19.90;39.90;;;18.57;42.76;99997.19;12245304;19;19929;-85
2023/04/24 17:38:42;;;;;;;;;;;19.70;40.20;;;18.44;42.51;100017.09;12248553;19;19915;-85
2023/04/24 17:42:45;;;;;;;;;;;19.60;40.00;;;18.40;42.71;100024.50;12254066;19;19935;-85
2023/04/24 17:46:46;;;;;;;;;;;19.40;40.00;;;18.31;42.57;100036.00;12253745;19;19915;-85
2023/04/24 17:50:48;;;;;;;;;;;19.30;40.10;;;18.17;42.58;100037.31;12252877;19;19934;-85
2023/04/24 17:54:50;;;;;;;;;;;19.20;40.10;;;18.12;42.73;100061.59;12251802;19;19920;-85
2023/04/24 17:58:51;;;;;;;;;;;19.10;40.20;;;17.93;42.70;100051.16;12249446;19;19935;-84
2023/04/24 18:02:59;;;;;;;;;;;19.00;40.00;;;17.75;42.57;100051.06;12253707;19;19927;-85
2023/04/24 18:07:00;;;;;;;;;;;18.90;39.90;;;17.41;42.81;100027.88;12248500;19;19919;-85
2023/04/24 18:11:02;;;;;;;;;;;18.70;40.30;;;17.55;42.68;100073.25;12255223;19;19942;-85
2023/04/24 18:15:04;;;;;;;;;;;18.60;40.40;;;17.33;42.87;100064.72;12253575;19;19911;-86
2023/04/24 18:19:06;;;;;;;;;;;18.50;40.60;;;17.35;42.93;100093.63;12251519;19;19914;-85
2023/04/24 18:23:07;;;;;;;;;;;18.40;40.60;;;17.31;42.81;100102.81;12254764;19;19932;-85